Terminal Aerodrome Forecast
Issued by NWS Shreveport, LA

Home | Current Version | Previous Version | Text Only | Print | Product List | Glossary On
Versions: 1 2 3 4 5 6 7 8 9 10 11 12 13 14
000
FTUS44 KSHV 202300 RRA
TAFSHV
TAF
KSHV 202348Z 2100/2124 03005KT P6SM SCT250
     FM210100 VRB03KT P6SM SCT250
     FM211300 VRB03KT P6SM BKN050
     FM211700 08005KT P6SM SCT250=

USA.gov is the U.S. government's official web portal to all federal, state and local government web resources and services.